createdAt,value
2023-04-28T00:00:09.078Z,13.22
2023-04-28T00:00:30.849Z,13.23
2023-04-28T00:00:52.645Z,13.24
2023-04-28T00:01:14.429Z,13.26
2023-04-28T00:01:36.604Z,13.26
2023-04-28T00:01:58.553Z,13.28
2023-04-28T00:02:20.513Z,13.29
2023-04-28T00:02:42.992Z,13.30
2023-04-28T00:03:04.965Z,13.31
2023-04-28T00:03:28.605Z,13.32
2023-04-28T00:03:50.605Z,13.33
2023-04-28T00:04:12.938Z,13.34
2023-04-28T00:04:35.428Z,13.35
2023-04-28T00:04:58.859Z,13.35
2023-04-28T00:05:21.284Z,13.36
2023-04-28T00:05:43.337Z,13.36
2023-04-28T00:06:06.245Z,13.35
2023-04-28T00:06:28.462Z,13.34
2023-04-28T00:06:50.147Z,13.34
2023-04-28T00:07:11.871Z,13.34
2023-04-28T00:07:33.644Z,13.32
2023-04-28T00:07:55.535Z,13.32
2023-04-28T00:08:17.530Z,13.31
2023-04-28T00:08:39.614Z,13.30
2023-04-28T00:09:01.500Z,13.28
2023-04-28T00:09:23.264Z,13.27
2023-04-28T00:09:45.068Z,13.26
2023-04-28T00:10:07.364Z,13.25
2023-04-28T00:10:29.353Z,13.23
2023-04-28T00:10:51.147Z,13.22
2023-04-28T00:11:12.923Z,13.21
2023-04-28T00:11:34.705Z,13.21
2023-04-28T00:11:56.475Z,13.21
2023-04-28T00:12:18.194Z,13.20
2023-04-28T00:12:39.963Z,13.20
2023-04-28T00:13:01.741Z,13.21
2023-04-28T00:13:23.531Z,13.20
2023-04-28T00:13:45.254Z,13.21
2023-04-28T00:14:06.976Z,13.21
2023-04-28T00:14:28.784Z,13.21
2023-04-28T00:14:50.669Z,13.20
2023-04-28T00:15:13.537Z,13.21
2023-04-28T00:15:35.466Z,13.21
2023-04-28T00:15:57.471Z,13.21
2023-04-28T00:16:19.264Z,13.21
2023-04-28T00:16:41.728Z,13.21
2023-04-28T00:17:03.611Z,13.21
2023-04-28T00:17:25.552Z,13.21
2023-04-28T00:17:47.425Z,13.21
2023-04-28T00:18:09.444Z,13.21
2023-04-28T00:18:31.625Z,13.21
2023-04-28T00:18:53.565Z,13.21
2023-04-28T00:19:15.352Z,13.20
2023-04-28T00:19:38.853Z,13.19
2023-04-28T00:20:00.760Z,13.18
2023-04-28T00:20:22.547Z,13.17
2023-04-28T00:20:44.645Z,13.16
2023-04-28T00:21:06.630Z,13.14
2023-04-28T00:21:29.236Z,13.14
2023-04-28T00:21:51.014Z,13.12
2023-04-28T00:22:12.800Z,13.12
2023-04-28T00:22:34.579Z,13.10
2023-04-28T00:22:56.251Z,13.09
2023-04-28T00:23:17.954Z,13.09
2023-04-28T00:23:39.732Z,13.08
2023-04-28T00:24:01.501Z,13.09
2023-04-28T00:24:23.404Z,13.10
2023-04-28T00:24:45.406Z,13.10
2023-04-28T00:25:08.610Z,13.10
2023-04-28T00:25:30.598Z,13.11
2023-04-28T00:25:52.895Z,13.11
2023-04-28T00:26:14.947Z,13.12
2023-04-28T00:26:37.279Z,13.12
2023-04-28T00:26:59.066Z,13.13
2023-04-28T00:27:21.066Z,13.14
2023-04-28T00:27:42.839Z,13.15
2023-04-28T00:28:04.630Z,13.15
2023-04-28T00:28:34.099Z,13.16
2023-04-28T00:28:56.685Z,13.17
2023-04-28T00:29:18.468Z,13.16
2023-04-28T00:29:40.253Z,13.16
2023-04-28T00:30:02.767Z,13.16
2023-04-28T00:30:25.458Z,13.17
2023-04-28T00:30:47.442Z,13.16
2023-04-28T00:31:15.894Z,13.16
2023-04-28T00:31:37.933Z,13.15
2023-04-28T00:31:59.781Z,13.15
2023-04-28T00:32:21.988Z,13.15
2023-04-28T00:32:43.798Z,13.15
2023-04-28T00:33:06.218Z,13.15
2023-04-28T00:33:28.118Z,13.14
2023-04-28T00:33:49.909Z,13.14
2023-04-28T00:34:14.717Z,13.14
2023-04-28T00:34:37.680Z,13.14
2023-04-28T00:34:59.421Z,13.09
2023-04-28T00:35:21.333Z,13.13
2023-04-28T00:35:43.222Z,13.13
2023-04-28T00:36:05.620Z,13.14
2023-04-28T00:36:32.220Z,13.15
2023-04-28T00:36:54.099Z,13.16
2023-04-28T00:37:16.461Z,13.17
2023-04-28T00:37:38.587Z,13.18
2023-04-28T00:38:00.370Z,13.18
2023-04-28T00:38:25.582Z,13.19
2023-04-28T00:38:47.416Z,13.19
2023-04-28T00:39:10.242Z,13.18
2023-04-28T00:39:32.522Z,13.18
2023-04-28T00:39:57.374Z,13.18
2023-04-28T00:40:19.380Z,13.17
2023-04-28T00:40:41.255Z,13.17
2023-04-28T00:41:03.346Z,13.16
2023-04-28T00:41:25.127Z,13.16
2023-04-28T00:41:46.833Z,13.16
2023-04-28T00:42:08.596Z,13.15
2023-04-28T00:42:30.672Z,13.15
2023-04-28T00:42:52.390Z,13.15
2023-04-28T00:43:14.458Z,13.15
2023-04-28T00:43:46.594Z,13.14
2023-04-28T00:44:08.563Z,13.14
2023-04-28T00:44:30.288Z,13.13
2023-04-28T00:44:52.137Z,13.12
2023-04-28T00:45:13.914Z,13.11
2023-04-28T00:45:36.168Z,13.10
2023-04-28T00:45:58.114Z,13.08
2023-04-28T00:46:24.964Z,13.07
2023-04-28T00:46:48.016Z,13.05
2023-04-28T00:47:10.415Z,13.04
2023-04-28T00:47:35.219Z,13.04
2023-04-28T00:47:59.000Z,13.03
2023-04-28T00:48:20.918Z,13.03
2023-04-28T00:48:42.677Z,13.03
2023-04-28T00:49:04.448Z,13.02
2023-04-28T00:49:26.456Z,13.03
2023-04-28T00:49:49.856Z,13.02
2023-04-28T00:50:11.741Z,13.01
2023-04-28T00:50:33.521Z,13.01
2023-04-28T00:50:55.320Z,13.01
2023-04-28T00:51:17.702Z,13.00
2023-04-28T00:51:40.237Z,13.00
2023-04-28T00:52:05.056Z,12.99
2023-04-28T00:52:26.784Z,13.00
2023-04-28T00:52:48.523Z,12.99
2023-04-28T00:53:10.921Z,12.99
2023-04-28T00:53:32.808Z,12.99
2023-04-28T00:53:54.714Z,12.98
2023-04-28T00:54:16.826Z,12.98
2023-04-28T00:54:38.980Z,12.96
2023-04-28T00:55:01.103Z,12.96
2023-04-28T00:55:22.966Z,12.95
2023-04-28T00:55:44.682Z,12.94
2023-04-28T00:56:06.835Z,12.94
2023-04-28T00:56:31.119Z,12.93
2023-04-28T00:56:53.062Z,12.91
2023-04-28T00:57:14.950Z,12.90
2023-04-28T00:57:36.745Z,12.90
2023-04-28T00:57:58.723Z,12.89
2023-04-28T00:58:20.626Z,12.89
2023-04-28T00:58:42.395Z,12.88
2023-04-28T00:59:04.174Z,12.88
2023-04-28T00:59:26.066Z,12.87
2023-04-28T00:59:47.952Z,12.87
2023-04-28T01:00:10.040Z,12.87
2023-04-28T01:00:31.929Z,12.87
2023-04-28T01:00:53.647Z,12.87
2023-04-28T01:01:15.517Z,12.88
2023-04-28T01:01:37.886Z,12.89
2023-04-28T01:02:00.215Z,12.90
2023-04-28T01:02:22.350Z,12.91
2023-04-28T01:02:44.584Z,12.92
2023-04-28T01:03:06.926Z,12.93
2023-04-28T01:03:29.688Z,12.93
2023-04-28T01:03:51.994Z,12.95
2023-04-28T01:04:14.276Z,12.96
2023-04-28T01:04:37.245Z,12.96
2023-04-28T01:05:00.112Z,12.98
2023-04-28T01:05:21.884Z,12.99
2023-04-28T01:05:43.846Z,13.00
2023-04-28T01:06:06.388Z,13.01
2023-04-28T01:06:28.867Z,13.02
2023-04-28T01:06:51.280Z,13.02
2023-04-28T01:07:13.223Z,13.02
2023-04-28T01:07:35.138Z,13.02
2023-04-28T01:07:57.538Z,13.02
2023-04-28T01:08:23.329Z,13.01
2023-04-28T01:08:47.962Z,13.01
2023-04-28T01:09:11.085Z,13.01
2023-04-28T01:09:33.103Z,13.01
2023-04-28T01:09:55.460Z,13.00
2023-04-28T01:10:21.131Z,12.99
2023-04-28T01:10:46.088Z,12.98
2023-04-28T01:11:15.244Z,12.97
2023-04-28T01:12:00.243Z,12.95
2023-04-28T01:12:34.084Z,12.95
2023-04-28T01:12:55.876Z,12.95
2023-04-28T01:13:17.862Z,12.94
2023-04-28T01:13:39.961Z,12.95
2023-04-28T01:14:01.736Z,12.95
2023-04-28T01:14:25.884Z,12.96
2023-04-28T01:14:47.964Z,12.97
2023-04-28T01:15:16.508Z,12.98
2023-04-28T01:15:38.758Z,12.98
2023-04-28T01:16:00.966Z,12.98
2023-04-28T01:16:23.105Z,12.98
2023-04-28T01:16:45.414Z,12.98
2023-04-28T01:17:07.779Z,12.97
2023-04-28T01:17:29.854Z,12.96
2023-04-28T01:17:52.118Z,12.94
2023-04-28T01:18:13.947Z,12.92
2023-04-28T01:18:35.940Z,12.90
2023-04-28T01:18:57.924Z,12.88
2023-04-28T01:19:22.547Z,12.87
2023-04-28T01:19:44.511Z,12.85
2023-04-28T01:20:06.860Z,12.83
2023-04-28T01:20:28.644Z,12.82
2023-04-28T01:20:50.529Z,12.80
2023-04-28T01:21:12.415Z,12.78
2023-04-28T01:21:34.507Z,12.79
2023-04-28T01:22:02.733Z,12.77
2023-04-28T01:22:25.236Z,12.78
2023-04-28T01:22:47.022Z,12.78
2023-04-28T01:23:13.014Z,12.79
2023-04-28T01:23:34.793Z,12.80
2023-04-28T01:23:57.796Z,12.81
2023-04-28T01:24:19.716Z,12.81
2023-04-28T01:24:42.909Z,12.81
2023-04-28T01:25:04.938Z,12.81
2023-04-28T01:25:27.059Z,12.82
2023-04-28T01:25:48.870Z,12.83
2023-04-28T01:26:11.195Z,12.83
2023-04-28T01:26:32.947Z,12.84
2023-04-28T01:26:56.385Z,12.85
2023-04-28T01:27:18.155Z,12.86
2023-04-28T01:27:40.033Z,12.86
2023-04-28T01:28:01.890Z,12.86
2023-04-28T01:28:23.710Z,12.88
2023-04-28T01:28:45.597Z,12.87
2023-04-28T01:29:07.790Z,12.88
2023-04-28T01:29:29.779Z,12.88
2023-04-28T01:29:51.561Z,12.88
2023-04-28T01:30:13.451Z,12.88
2023-04-28T01:30:35.958Z,12.87
2023-04-28T01:30:57.751Z,12.88
2023-04-28T01:31:19.578Z,12.87
2023-04-28T01:31:41.732Z,12.87
2023-04-28T01:32:03.783Z,12.87
2023-04-28T01:32:25.715Z,12.87
2023-04-28T01:32:47.516Z,12.87
2023-04-28T01:33:09.572Z,12.86
2023-04-28T01:33:31.663Z,12.88
2023-04-28T01:33:53.442Z,12.88
2023-04-28T01:34:15.304Z,12.88
2023-04-28T01:34:37.329Z,12.90
2023-04-28T01:35:00.860Z,12.90
2023-04-28T01:35:22.629Z,12.91
2023-04-28T01:35:44.408Z,12.92
2023-04-28T01:36:06.442Z,12.92
2023-04-28T01:36:28.800Z,12.93
2023-04-28T01:36:50.886Z,12.93
2023-04-28T01:37:12.585Z,12.93
2023-04-28T01:37:34.353Z,12.94
2023-04-28T01:37:56.246Z,12.94
2023-04-28T01:38:18.034Z,12.94
2023-04-28T01:38:39.810Z,12.95
2023-04-28T01:39:01.597Z,12.95
2023-04-28T01:39:23.586Z,12.96
2023-04-28T01:39:45.583Z,12.96
2023-04-28T01:40:08.292Z,12.96
2023-04-28T01:40:30.271Z,12.97
2023-04-28T01:40:54.302Z,12.97
2023-04-28T01:41:16.398Z,12.97
2023-04-28T01:41:38.137Z,12.96
2023-04-28T01:41:59.842Z,12.95
2023-04-28T01:42:21.645Z,12.95
2023-04-28T01:42:43.530Z,12.95
2023-04-28T01:43:05.321Z,12.93
2023-04-28T01:43:27.104Z,12.93
2023-04-28T01:43:48.988Z,12.91
2023-04-28T01:44:12.101Z,12.90
2023-04-28T01:44:33.888Z,12.89
2023-04-28T01:44:55.686Z,12.88
2023-04-28T01:45:17.451Z,12.86
2023-04-28T01:45:39.143Z,12.86
2023-04-28T01:46:00.940Z,12.86
2023-04-28T01:46:22.848Z,12.86
2023-04-28T01:46:46.026Z,12.86
2023-04-28T01:47:08.212Z,12.87
2023-04-28T01:47:30.469Z,12.88
2023-04-28T01:47:52.685Z,12.89
2023-04-28T01:48:14.597Z,12.90
2023-04-28T01:48:36.379Z,12.91
2023-04-28T01:48:58.166Z,12.91
2023-04-28T01:49:20.166Z,12.92
2023-04-28T01:49:41.936Z,12.93
2023-04-28T01:50:03.821Z,12.94
2023-04-28T01:50:25.815Z,12.94
2023-04-28T01:50:47.597Z,12.94
2023-04-28T01:51:09.388Z,12.94
2023-04-28T01:51:33.288Z,12.94
2023-04-28T01:51:55.094Z,12.94
2023-04-28T01:52:16.866Z,12.93
2023-04-28T01:52:38.973Z,12.94
2023-04-28T01:53:00.858Z,12.93
2023-04-28T01:53:22.657Z,12.93
2023-04-28T01:53:44.426Z,12.92
2023-04-28T01:54:06.638Z,12.91
2023-04-28T01:54:28.612Z,12.90
2023-04-28T01:54:50.910Z,12.89
2023-04-28T01:55:12.725Z,12.89
2023-04-28T01:55:34.678Z,12.88
2023-04-28T01:55:56.786Z,12.88
2023-04-28T01:56:18.657Z,12.87
2023-04-28T01:56:40.763Z,12.86
2023-04-28T01:57:03.488Z,12.86
2023-04-28T01:57:26.263Z,12.86
2023-04-28T01:57:48.091Z,12.86
2023-04-28T01:58:10.035Z,12.87
2023-04-28T01:58:31.930Z,12.87
2023-04-28T01:58:53.818Z,12.87
2023-04-28T01:59:16.426Z,12.88
2023-04-28T01:59:38.195Z,12.88
2023-04-28T02:00:00.817Z,12.89
2023-04-28T02:00:22.935Z,12.90
2023-04-28T02:00:45.852Z,12.91
2023-04-28T02:01:08.522Z,12.91
2023-04-28T02:01:30.358Z,12.91
2023-04-28T02:01:52.360Z,12.92
2023-04-28T02:02:14.362Z,12.93
2023-04-28T02:02:37.253Z,12.92
2023-04-28T02:02:59.320Z,12.93
2023-04-28T02:03:21.809Z,12.91
2023-04-28T02:03:44.004Z,12.90
2023-04-28T02:04:06.044Z,12.89
2023-04-28T02:04:28.314Z,12.88
2023-04-28T02:04:50.501Z,12.88
2023-04-28T02:05:12.642Z,12.87
2023-04-28T02:05:34.883Z,12.86
2023-04-28T02:05:56.578Z,12.86
2023-04-28T02:06:18.396Z,12.85
2023-04-28T02:06:40.180Z,12.85
2023-04-28T02:07:01.980Z,12.85
2023-04-28T02:07:23.953Z,12.84
2023-04-28T02:07:46.555Z,12.84
2023-04-28T02:08:08.340Z,12.84
2023-04-28T02:08:30.136Z,12.84
2023-04-28T02:08:52.011Z,12.84
2023-04-28T02:09:13.823Z,12.85
2023-04-28T02:09:35.685Z,12.86
2023-04-28T02:09:57.421Z,12.87
2023-04-28T02:10:19.352Z,12.89
2023-04-28T02:10:41.751Z,12.90
2023-04-28T02:11:04.403Z,12.91
2023-04-28T02:11:26.354Z,12.93
2023-04-28T02:11:51.402Z,12.94
2023-04-28T02:12:13.294Z,12.96
2023-04-28T02:12:35.058Z,12.96
2023-04-28T02:12:56.854Z,12.98
2023-04-28T02:13:18.644Z,13.00
2023-04-28T02:13:40.457Z,13.00
2023-04-28T02:14:02.312Z,13.01
2023-04-28T02:14:24.200Z,13.00
2023-04-28T02:14:46.290Z,13.00
2023-04-28T02:15:09.113Z,13.00
2023-04-28T02:15:30.881Z,12.99
2023-04-28T02:15:52.654Z,12.99
2023-04-28T02:16:16.335Z,12.98
2023-04-28T02:16:38.279Z,12.98
2023-04-28T02:17:00.162Z,12.96
2023-04-28T02:17:21.961Z,12.96
2023-04-28T02:17:43.882Z,12.95
2023-04-28T02:18:05.969Z,12.94
2023-04-28T02:18:28.123Z,12.94
2023-04-28T02:18:50.224Z,12.93
2023-04-28T02:19:12.101Z,12.94
2023-04-28T02:19:33.807Z,12.94
2023-04-28T02:19:56.914Z,12.95
2023-04-28T02:20:18.783Z,12.96
2023-04-28T02:20:41.091Z,12.97
2023-04-28T02:21:11.082Z,12.98
2023-04-28T02:21:33.242Z,13.00
2023-04-28T02:21:55.033Z,13.01
2023-04-28T02:22:16.777Z,13.02
2023-04-28T02:22:38.509Z,13.03
2023-04-28T02:23:01.512Z,13.04
2023-04-28T02:23:23.515Z,13.05
2023-04-28T02:23:45.284Z,13.06
2023-04-28T02:24:07.895Z,13.05
2023-04-28T02:24:29.793Z,13.06
2023-04-28T02:24:52.673Z,13.05
2023-04-28T02:25:14.460Z,13.05
2023-04-28T02:25:36.196Z,13.05
2023-04-28T02:26:02.015Z,13.04
2023-04-28T02:26:24.519Z,13.04
2023-04-28T02:26:46.610Z,13.03
2023-04-28T02:27:08.599Z,13.03
2023-04-28T02:27:30.585Z,13.03
2023-04-28T02:27:52.776Z,13.02
2023-04-28T02:28:15.380Z,13.01
2023-04-28T02:28:37.081Z,13.00
2023-04-28T02:29:01.119Z,13.00
2023-04-28T02:29:27.809Z,12.98
2023-04-28T02:29:49.680Z,12.97
2023-04-28T02:30:12.388Z,12.96
2023-04-28T02:30:34.291Z,12.96
2023-04-28T02:31:09.644Z,12.96
2023-04-28T02:31:31.884Z,12.95
2023-04-28T02:31:54.250Z,12.95
2023-04-28T02:32:16.242Z,12.95
2023-04-28T02:32:38.249Z,12.95
2023-04-28T02:33:00.059Z,12.95
2023-04-28T02:33:21.923Z,12.95
2023-04-28T02:33:43.786Z,12.95
2023-04-28T02:34:05.987Z,12.96
2023-04-28T02:34:27.767Z,12.96
2023-04-28T02:34:53.161Z,12.97
2023-04-28T02:35:15.120Z,12.98
2023-04-28T02:35:36.902Z,12.99
2023-04-28T02:35:59.608Z,12.95
2023-04-28T02:36:21.389Z,13.00
2023-04-28T02:36:43.176Z,12.99
2023-04-28T02:37:04.958Z,12.99
2023-04-28T02:37:27.492Z,12.98
2023-04-28T02:37:49.241Z,12.97
2023-04-28T02:38:11.030Z,12.96
2023-04-28T02:38:32.918Z,12.95
2023-04-28T02:38:54.800Z,12.94
2023-04-28T02:39:16.794Z,12.93
2023-04-28T02:39:38.552Z,12.93
2023-04-28T02:40:00.359Z,12.92
2023-04-28T02:40:22.152Z,12.90
2023-04-28T02:40:43.927Z,12.90
2023-04-28T02:41:06.736Z,12.90
2023-04-28T02:41:30.260Z,12.89
2023-04-28T02:41:52.596Z,12.85
2023-04-28T02:42:14.541Z,12.89
2023-04-28T02:42:36.332Z,12.89
2023-04-28T02:42:58.111Z,12.90
2023-04-28T02:43:19.894Z,12.90
2023-04-28T02:43:42.415Z,12.91
2023-04-28T02:44:04.285Z,12.92
2023-04-28T02:44:26.375Z,12.93
2023-04-28T02:44:48.166Z,12.94
2023-04-28T02:45:10.233Z,12.94
2023-04-28T02:45:32.357Z,12.94
2023-04-28T02:45:54.166Z,12.95
2023-04-28T02:46:16.249Z,12.96
2023-04-28T02:46:38.156Z,12.97
2023-04-28T02:47:00.777Z,12.98
2023-04-28T02:47:22.757Z,12.98
2023-04-28T02:47:44.741Z,12.98
2023-04-28T02:48:07.129Z,12.95
2023-04-28T02:48:29.077Z,12.98
2023-04-28T02:48:51.273Z,12.97
2023-04-28T02:49:13.665Z,12.96
2023-04-28T02:49:35.449Z,12.95
2023-04-28T02:49:57.233Z,12.94
2023-04-28T02:50:19.536Z,12.92
2023-04-28T02:50:41.263Z,12.90
2023-04-28T02:51:03.225Z,12.89
2023-04-28T02:51:25.396Z,12.87
2023-04-28T02:51:47.179Z,12.86
2023-04-28T02:52:09.272Z,12.86
2023-04-28T02:52:31.055Z,12.85
2023-04-28T02:52:52.847Z,12.85
2023-04-28T02:53:15.007Z,12.85
2023-04-28T02:53:36.924Z,12.85
2023-04-28T02:53:58.812Z,12.85
2023-04-28T02:54:29.694Z,12.85
2023-04-28T02:54:54.751Z,12.84
2023-04-28T02:55:23.969Z,12.84
2023-04-28T02:55:46.620Z,12.84
2023-04-28T02:56:08.396Z,12.85
2023-04-28T02:56:30.299Z,12.85
2023-04-28T02:56:52.473Z,12.85
2023-04-28T02:57:14.255Z,12.85
2023-04-28T02:57:36.272Z,12.86
2023-04-28T02:57:58.165Z,12.85
2023-04-28T02:58:19.954Z,12.86
2023-04-28T02:58:41.801Z,12.86
2023-04-28T02:59:04.201Z,12.85
2023-04-28T02:59:27.316Z,12.84
2023-04-28T02:59:49.202Z,12.84
2023-04-28T03:00:11.510Z,12.83
2023-04-28T03:00:38.806Z,12.83
2023-04-28T03:01:01.364Z,12.82
2023-04-28T03:01:23.560Z,12.81
2023-04-28T03:01:46.088Z,12.80
2023-04-28T03:02:09.419Z,12.80
2023-04-28T03:02:31.489Z,12.78
2023-04-28T03:02:53.528Z,12.77
2023-04-28T03:03:15.697Z,12.77
2023-04-28T03:03:37.737Z,12.77
2023-04-28T03:04:00.515Z,12.77
2023-04-28T03:04:22.884Z,12.79
2023-04-28T03:04:44.955Z,12.79
2023-04-28T03:05:07.192Z,12.80
2023-04-28T03:05:29.060Z,12.81
2023-04-28T03:05:50.841Z,12.82
2023-04-28T03:06:12.949Z,12.83
2023-04-28T03:06:34.823Z,12.84
2023-04-28T03:06:56.603Z,12.85
2023-04-28T03:07:18.602Z,12.86
2023-04-28T03:07:40.687Z,12.87
2023-04-28T03:08:02.349Z,12.87
2023-04-28T03:08:24.356Z,12.88
2023-04-28T03:08:46.346Z,12.88
2023-04-28T03:09:08.538Z,12.88
2023-04-28T03:09:30.643Z,12.88
2023-04-28T03:09:52.515Z,12.87
2023-04-28T03:10:14.313Z,12.87
2023-04-28T03:10:36.196Z,12.87
2023-04-28T03:10:58.009Z,12.87
2023-04-28T03:11:19.860Z,12.87
2023-04-28T03:11:41.762Z,12.86
2023-04-28T03:12:04.044Z,12.86
2023-04-28T03:12:26.439Z,12.85
2023-04-28T03:12:48.196Z,12.85
2023-04-28T03:13:09.891Z,12.85
2023-04-28T03:13:31.616Z,12.86
2023-04-28T03:13:53.580Z,12.86
2023-04-28T03:14:16.661Z,12.87
2023-04-28T03:14:38.682Z,12.88
2023-04-28T03:15:01.492Z,12.88
2023-04-28T03:15:23.276Z,12.90
2023-04-28T03:15:45.047Z,12.91
2023-04-28T03:16:08.211Z,12.92
2023-04-28T03:16:30.129Z,12.93
2023-04-28T03:16:52.053Z,12.94
2023-04-28T03:17:14.277Z,12.94
2023-04-28T03:17:39.339Z,12.95
2023-04-28T03:18:01.340Z,12.95
2023-04-28T03:18:24.004Z,12.95
2023-04-28T03:18:45.792Z,12.95
2023-04-28T03:19:07.561Z,12.94
2023-04-28T03:19:29.449Z,12.93
2023-04-28T03:19:51.375Z,12.93
2023-04-28T03:20:13.432Z,12.92
2023-04-28T03:20:35.414Z,12.90
2023-04-28T03:20:57.170Z,12.90
2023-04-28T03:21:21.132Z,12.89
2023-04-28T03:21:42.919Z,12.88
2023-04-28T03:22:07.631Z,12.87
2023-04-28T03:22:29.451Z,12.87
2023-04-28T03:22:51.196Z,12.86
2023-04-28T03:23:13.325Z,12.86
2023-04-28T03:23:36.477Z,12.86
2023-04-28T03:23:58.229Z,12.86
2023-04-28T03:24:20.112Z,12.87
2023-04-28T03:24:42.009Z,12.87
2023-04-28T03:25:03.883Z,12.87
2023-04-28T03:25:27.716Z,12.88
2023-04-28T03:25:49.466Z,12.89
2023-04-28T03:26:11.490Z,12.89
2023-04-28T03:26:33.305Z,12.90
2023-04-28T03:26:55.160Z,12.92
2023-04-28T03:27:16.897Z,12.93
2023-04-28T03:27:38.728Z,12.93
2023-04-28T03:28:00.624Z,12.94
2023-04-28T03:28:22.414Z,12.94
2023-04-28T03:28:44.406Z,12.94
2023-04-28T03:29:06.202Z,12.94
2023-04-28T03:29:28.058Z,12.93
2023-04-28T03:29:49.780Z,12.92
2023-04-28T03:30:12.066Z,12.91
2023-04-28T03:30:33.823Z,12.90
2023-04-28T03:30:56.219Z,12.89
2023-04-28T03:31:18.009Z,12.88
2023-04-28T03:31:39.875Z,12.87
2023-04-28T03:32:01.719Z,12.86
2023-04-28T03:32:23.780Z,12.86
2023-04-28T03:32:46.104Z,12.85
2023-04-28T03:33:08.242Z,12.85
2023-04-28T03:33:30.349Z,12.84
2023-04-28T03:33:52.442Z,12.84
2023-04-28T03:34:14.706Z,12.84
2023-04-28T03:34:37.033Z,12.85
2023-04-28T03:34:59.038Z,12.85
2023-04-28T03:35:20.907Z,12.85
2023-04-28T03:35:43.334Z,12.86
2023-04-28T03:36:05.829Z,12.87
2023-04-28T03:36:27.806Z,12.87
2023-04-28T03:36:56.640Z,12.88
2023-04-28T03:37:22.852Z,12.89
2023-04-28T03:37:44.824Z,12.89
2023-04-28T03:38:07.313Z,12.90
2023-04-28T03:38:29.401Z,12.90
2023-04-28T03:38:51.190Z,12.89
2023-04-28T03:39:13.278Z,12.89
2023-04-28T03:39:35.250Z,12.89
2023-04-28T03:39:57.080Z,12.88
2023-04-28T03:40:19.343Z,12.87
2023-04-28T03:41:07.522Z,12.85
2023-04-28T03:41:58.450Z,12.82
2023-04-28T03:42:49.381Z,12.79
2023-04-28T03:43:18.959Z,12.78
2023-04-28T03:44:13.258Z,12.77
2023-04-28T03:44:42.951Z,12.77
2023-04-28T03:45:05.107Z,12.77
2023-04-28T03:45:27.110Z,12.78
2023-04-28T03:45:49.758Z,12.80
2023-04-28T03:46:11.605Z,12.81
2023-04-28T03:46:34.793Z,12.82
2023-04-28T03:46:57.227Z,12.83
2023-04-28T03:47:19.090Z,12.83
2023-04-28T03:47:40.972Z,12.85
2023-04-28T03:48:02.765Z,12.85
2023-04-28T03:48:25.010Z,12.86
2023-04-28T03:48:46.928Z,12.86
2023-04-28T03:49:09.040Z,12.87
2023-04-28T03:49:30.913Z,12.87
2023-04-28T03:49:53.006Z,12.87
2023-04-28T03:50:14.794Z,12.88
2023-04-28T03:50:36.572Z,12.88
2023-04-28T03:50:58.711Z,12.87
2023-04-28T03:51:20.652Z,12.87
2023-04-28T03:51:42.741Z,12.86
2023-04-28T03:52:04.771Z,12.84
2023-04-28T03:52:27.677Z,12.83
2023-04-28T03:52:50.243Z,12.82
2023-04-28T03:53:12.236Z,12.82
2023-04-28T03:53:34.033Z,12.80
2023-04-28T03:53:56.210Z,12.79
2023-04-28T03:54:18.169Z,12.78
2023-04-28T03:54:41.630Z,12.77
2023-04-28T03:55:03.736Z,12.76
2023-04-28T03:55:26.272Z,12.76
2023-04-28T03:55:48.074Z,12.75
2023-04-28T03:56:10.096Z,12.75
2023-04-28T03:56:32.190Z,12.76
2023-04-28T03:56:55.706Z,12.77
2023-04-28T03:57:17.701Z,12.76
2023-04-28T03:57:39.495Z,12.77
2023-04-28T03:58:01.568Z,12.78
2023-04-28T03:58:23.364Z,12.79
2023-04-28T03:58:45.158Z,12.80
2023-04-28T03:59:06.890Z,12.80
2023-04-28T03:59:28.702Z,12.80
2023-04-28T03:59:51.317Z,12.80
2023-04-28T04:00:13.514Z,12.80
2023-04-28T04:00:38.038Z,12.79
2023-04-28T04:01:01.233Z,12.79
2023-04-28T04:01:23.046Z,12.77
2023-04-28T04:01:45.039Z,12.76
2023-04-28T04:02:06.831Z,12.75
2023-04-28T04:02:28.821Z,12.74
2023-04-28T04:02:50.831Z,12.72
2023-04-28T04:03:13.131Z,12.71
2023-04-28T04:03:35.436Z,12.70
2023-04-28T04:03:57.653Z,12.68
2023-04-28T04:04:20.136Z,12.67
2023-04-28T04:04:42.609Z,12.66
2023-04-28T04:05:05.166Z,12.65
2023-04-28T04:05:27.188Z,12.65
2023-04-28T04:05:49.819Z,12.65
2023-04-28T04:06:11.977Z,12.65
2023-04-28T04:06:34.190Z,12.66
2023-04-28T04:06:56.567Z,12.66
2023-04-28T04:07:18.508Z,12.67
2023-04-28T04:07:40.648Z,12.68
2023-04-28T04:08:03.250Z,12.68
2023-04-28T04:08:24.942Z,12.68
2023-04-28T04:08:46.701Z,12.67
2023-04-28T04:09:10.263Z,12.67
2023-04-28T04:09:32.845Z,12.67
2023-04-28T04:09:54.729Z,12.67
2023-04-28T04:10:16.512Z,12.66
2023-04-28T04:10:39.114Z,12.66
2023-04-28T04:11:01.024Z,12.66
2023-04-28T04:11:22.787Z,12.65
2023-04-28T04:11:44.985Z,12.64
2023-04-28T04:12:07.027Z,12.63
2023-04-28T04:12:28.857Z,12.62
2023-04-28T04:12:50.640Z,12.61
2023-04-28T04:13:12.955Z,12.60
2023-04-28T04:13:36.399Z,12.59
2023-04-28T04:14:00.112Z,12.57
2023-04-28T04:14:21.978Z,12.56
2023-04-28T04:14:44.676Z,12.55
2023-04-28T04:15:07.144Z,12.55
2023-04-28T04:15:29.269Z,12.54
2023-04-28T04:15:52.933Z,12.54
2023-04-28T04:16:16.324Z,12.55
2023-04-28T04:16:38.186Z,12.55
2023-04-28T04:17:00.144Z,12.56
2023-04-28T04:17:22.645Z,12.57
2023-04-28T04:17:44.573Z,12.58
2023-04-28T04:18:06.637Z,12.58
2023-04-28T04:18:44.208Z,12.59
2023-04-28T04:19:18.265Z,12.56
2023-04-28T04:19:42.841Z,12.62
2023-04-28T04:20:06.431Z,12.62
2023-04-28T04:20:28.228Z,12.63
2023-04-28T04:20:50.739Z,12.63
2023-04-28T04:21:12.605Z,12.63
2023-04-28T04:21:34.797Z,12.63
2023-04-28T04:21:56.888Z,12.63
2023-04-28T04:22:19.194Z,12.63
2023-04-28T04:22:41.302Z,12.62
2023-04-28T04:23:03.889Z,12.61
2023-04-28T04:23:25.628Z,12.61
2023-04-28T04:23:47.451Z,12.60
2023-04-28T04:24:09.336Z,12.60
2023-04-28T04:24:31.223Z,12.59
2023-04-28T04:24:52.992Z,12.57
2023-04-28T04:25:14.793Z,12.56
2023-04-28T04:25:37.604Z,12.56
2023-04-28T04:25:59.792Z,12.56
2023-04-28T04:26:21.987Z,12.56
2023-04-28T04:26:45.626Z,12.56
2023-04-28T04:27:26.200Z,12.57
2023-04-28T04:27:48.003Z,12.58
2023-04-28T04:28:10.090Z,12.59
2023-04-28T04:28:31.876Z,12.60
2023-04-28T04:28:53.658Z,12.61
2023-04-28T04:29:15.651Z,12.62
2023-04-28T04:29:37.540Z,12.63
2023-04-28T04:30:03.925Z,12.63
2023-04-28T04:30:25.688Z,12.64
2023-04-28T04:30:48.059Z,12.65
2023-04-28T04:31:10.005Z,12.65
2023-04-28T04:31:31.901Z,12.65
2023-04-28T04:31:53.647Z,12.65
2023-04-28T04:32:15.390Z,12.65
2023-04-28T04:32:37.576Z,12.64
2023-04-28T04:32:59.571Z,12.64
2023-04-28T04:33:21.519Z,12.63
2023-04-28T04:33:43.919Z,12.63
2023-04-28T04:34:06.000Z,12.62
2023-04-28T04:34:27.794Z,12.61
2023-04-28T04:34:50.048Z,12.61
2023-04-28T04:35:12.111Z,12.61
2023-04-28T04:35:33.967Z,12.60
2023-04-28T04:35:55.747Z,12.61
2023-04-28T04:36:18.036Z,12.61
2023-04-28T04:36:39.825Z,12.62
2023-04-28T04:37:02.632Z,12.62
2023-04-28T04:37:24.577Z,12.63
2023-04-28T04:37:51.420Z,12.64
2023-04-28T04:38:13.307Z,12.65
2023-04-28T04:38:35.194Z,12.66
2023-04-28T04:39:05.066Z,12.67
2023-04-28T04:39:27.152Z,12.68
2023-04-28T04:39:48.932Z,12.68
2023-04-28T04:40:11.328Z,12.69
2023-04-28T04:40:37.411Z,12.69
2023-04-28T04:40:59.666Z,12.70
2023-04-28T04:41:22.933Z,12.70
2023-04-28T04:41:46.646Z,12.71
2023-04-28T04:42:34.337Z,12.72
2023-04-28T04:43:01.629Z,12.71
2023-04-28T04:43:26.775Z,12.70
2023-04-28T04:43:48.673Z,12.69
2023-04-28T04:44:11.487Z,12.69
2023-04-28T04:44:36.430Z,12.68
2023-04-28T04:44:58.784Z,12.67
2023-04-28T04:45:24.767Z,12.65
2023-04-28T04:45:46.581Z,12.65
2023-04-28T04:46:08.794Z,12.64
2023-04-28T04:46:30.693Z,12.64
2023-04-28T04:46:52.937Z,12.64
2023-04-28T04:47:15.665Z,12.65
2023-04-28T04:47:37.735Z,12.64
2023-04-28T04:47:59.695Z,12.64
2023-04-28T04:48:21.488Z,12.64
2023-04-28T04:48:43.464Z,12.64
2023-04-28T04:49:05.448Z,12.64
2023-04-28T04:49:27.297Z,12.63
2023-04-28T04:49:52.557Z,12.63
2023-04-28T04:50:14.445Z,12.63
2023-04-28T04:50:36.329Z,12.64
2023-04-28T04:50:58.116Z,12.65
2023-04-28T04:51:20.506Z,12.64
2023-04-28T04:51:42.702Z,12.64
2023-04-28T04:52:06.905Z,12.64